Time;durP1;ratioP1;P1;durP2;ratioP2;P2;SDS_P1;SDS_P2;PMS_P1;PMS_P2;Temp;Humidity;BMP_temperature;BMP_pressure;BME280_temperature;BME280_humidity;BME280_pressure;Samples;Min_cycle;Max_cycle;Signal;HPM_P1;HPM_P2
2022/06/28 00:00:22;;;;;;;1.05;0.88;;;19.90;78.90;;;;;;4992300;28;20034;-68
2022/06/28 00:02:48;;;;;;;1.33;0.90;;;19.90;79.10;;;;;;4992188;28;20042;-68
2022/06/28 00:05:14;;;;;;;2.33;1.10;;;19.90;79.10;;;;;;4992610;28;20038;-69
2022/06/28 00:07:40;;;;;;;3.90;0.85;;;19.90;79.10;;;;;;4991352;28;20046;-68
2022/06/28 00:10:09;;;;;;;1.00;0.90;;;19.90;79.20;;;;;;4953900;28;1069842;-69
2022/06/28 00:12:35;;;;;;;1.25;1.02;;;19.90;79.10;;;;;;4988978;28;20370;-68
2022/06/28 00:17:45;;;;;;;1.20;1.00;;;19.90;78.70;;;;;;4991483;28;20485;-67
2022/06/28 00:20:12;;;;;;;1.40;1.30;;;19.90;78.70;;;;;;4992608;28;20046;-69
2022/06/28 00:22:37;;;;;;;2.33;1.70;;;19.90;78.70;;;;;;4992139;28;20690;-68
2022/06/28 00:25:04;;;;;;;2.03;1.25;;;20.00;78.70;;;;;;4990151;28;20352;-69
2022/06/28 00:27:29;;;;;;;1.80;1.35;;;19.90;78.70;;;;;;4990212;28;20030;-69
2022/06/28 00:29:55;;;;;;;1.98;1.23;;;20.00;78.80;;;;;;4991113;28;20049;-68
2022/06/28 00:32:21;;;;;;;1.42;1.20;;;20.00;78.70;;;;;;4990676;28;20030;-69
2022/06/28 00:34:49;;;;;;;1.17;1.08;;;20.00;78.70;;;;;;4990454;28;20037;-68
2022/06/28 00:37:15;;;;;;;2.97;1.38;;;19.90;78.70;;;;;;4991066;28;20037;-69
2022/06/28 00:39:40;;;;;;;1.70;1.40;;;20.00;78.70;;;;;;4991229;28;20414;-68
2022/06/28 00:42:10;;;;;;;2.10;1.38;;;20.00;78.90;;;;;;4987947;28;20360;-68
2022/06/28 00:44:37;;;;;;;2.60;1.50;;;20.00;78.70;;;;;;4992032;28;20039;-67
2022/06/28 00:47:03;;;;;;;2.47;1.60;;;20.00;78.80;;;;;;4993622;28;20521;-69
2022/06/28 00:49:30;;;;;;;1.30;1.20;;;20.00;79.00;;;;;;4991139;28;20579;-69
2022/06/28 00:51:58;;;;;;;2.28;1.50;;;20.00;78.90;;;;;;4988754;28;20046;-69
2022/06/28 00:54:25;;;;;;;1.63;1.50;;;20.00;78.90;;;;;;4990478;28;20236;-70
2022/06/28 00:56:51;;;;;;;2.38;1.40;;;20.00;78.90;;;;;;4988205;28;20428;-68
2022/06/28 00:59:17;;;;;;;1.98;1.40;;;20.00;78.80;;;;;;4990461;28;20030;-69
2022/06/28 01:01:43;;;;;;;1.77;1.60;;;20.00;78.60;;;;;;4994663;28;20033;-67
2022/06/28 01:04:09;;;;;;;1.92;1.55;;;20.00;78.50;;;;;;4995691;28;20037;-68
2022/06/28 01:06:37;;;;;;;2.38;1.45;;;20.00;78.50;;;;;;4992137;28;20113;-68
2022/06/28 01:09:03;;;;;;;3.92;1.65;;;20.00;78.60;;;;;;4991978;28;20042;-68
2022/06/28 01:11:29;;;;;;;3.20;1.52;;;20.00;78.60;;;;;;4992805;28;20042;-68
2022/06/28 01:14:03;;;;;;;2.55;1.45;;;20.00;78.60;;;;;;4977746;28;20746;-68
2022/06/28 01:16:29;;;;;;;2.83;1.40;;;20.00;78.70;;;;;;4993433;28;20029;-68
2022/06/28 01:18:55;;;;;;;1.52;1.42;;;20.00;78.50;;;;;;4998720;28;20100;-69
2022/06/28 01:21:29;;;;;;;6.18;1.60;;;20.00;78.60;;;;;;4997356;28;20037;-69
2022/06/28 01:23:55;;;;;;;1.65;1.55;;;20.00;78.70;;;;;;4998556;28;20038;-69
2022/06/28 01:26:22;;;;;;;3.65;1.80;;;20.00;78.70;;;;;;4995557;28;20429;-68
2022/06/28 01:28:51;;;;;;;2.97;1.63;;;20.00;78.70;;;;;;4993931;28;20037;-68
2022/06/28 01:31:18;;;;;;;1.95;1.75;;;20.00;79.00;;;;;;4993195;28;20469;-68
2022/06/28 01:33:44;;;;;;;2.53;1.80;;;20.00;78.70;;;;;;4993442;28;20049;-69
2022/06/28 01:36:11;;;;;;;2.55;1.92;;;19.90;78.70;;;;;;4991602;28;20034;-69
2022/06/28 01:38:38;;;;;;;3.50;2.00;;;19.90;78.90;;;;;;4992764;28;20548;-68
2022/06/28 01:41:05;;;;;;;3.13;1.83;;;19.90;79.10;;;;;;4990458;28;20065;-69
2022/06/28 01:43:34;;;;;;;2.75;1.85;;;19.90;79.30;;;;;;4993315;28;20026;-69
2022/06/28 01:46:03;;;;;;;5.78;2.00;;;19.90;79.20;;;;;;4992802;28;20562;-69
2022/06/28 01:48:30;;;;;;;3.25;1.85;;;19.90;79.10;;;;;;4993663;28;20034;-68
2022/06/28 01:50:56;;;;;;;2.75;2.03;;;19.90;79.10;;;;;;4992078;28;20514;-68
2022/06/28 01:53:22;;;;;;;5.18;1.98;;;20.00;78.90;;;;;;4992061;28;20172;-69
2022/06/28 01:55:48;;;;;;;2.88;1.98;;;20.00;79.10;;;;;;4993134;28;20030;-69
2022/06/28 01:58:14;;;;;;;2.95;1.65;;;20.00;79.10;;;;;;4992716;28;20065;-69
2022/06/28 02:00:40;;;;;;;2.70;2.17;;;20.00;78.80;;;;;;4994050;28;20061;-68
2022/06/28 02:03:06;;;;;;;1.90;1.77;;;20.00;78.80;;;;;;4994612;28;20049;-69
2022/06/28 02:05:32;;;;;;;2.42;1.65;;;20.00;78.70;;;;;;4994103;28;20050;-69
2022/06/28 02:07:58;;;;;;;2.58;2.05;;;20.00;78.80;;;;;;4992597;28;20064;-69
2022/06/28 02:10:24;;;;;;;2.53;1.98;;;20.00;78.80;;;;;;4998102;28;20445;-69
2022/06/28 02:12:50;;;;;;;2.30;2.10;;;20.00;78.90;;;;;;4991321;28;20031;-68
2022/06/28 02:15:16;;;;;;;3.83;2.05;;;20.00;78.80;;;;;;4990819;28;20042;-68
2022/06/28 02:17:43;;;;;;;4.95;2.25;;;20.00;78.90;;;;;;4993223;28;20065;-69
2022/06/28 02:20:09;;;;;;;6.53;2.63;;;20.00;78.90;;;;;;4993625;28;20529;-68
2022/06/28 02:22:35;;;;;;;4.22;2.38;;;19.90;78.70;;;;;;4993448;28;20128;-69
2022/06/28 02:25:01;;;;;;;4.40;2.50;;;19.90;78.80;;;;;;4989448;28;20038;-67
2022/06/28 02:27:26;;;;;;;3.58;2.08;;;19.90;79.00;;;;;;4991084;28;20026;-69
2022/06/28 02:29:52;;;;;;;4.20;2.65;;;19.90;79.10;;;;;;4990860;28;20034;-69
2022/06/28 02:32:18;;;;;;;5.00;2.47;;;19.90;79.10;;;;;;4990837;28;20061;-69
2022/06/28 02:40:21;;;;;;;3.38;2.38;;;19.80;79.20;;;;;;4988982;28;20044;-68
2022/06/28 02:42:56;;;;;;;;;;;19.80;79.30;;;;;;4992467;28;20030;-68
2022/06/28 02:45:23;;;;;;;7.00;2.22;;;19.70;79.80;;;;;;4995789;28;20043;-69
2022/06/28 02:47:49;;;;;;;7.30;2.33;;;19.70;79.10;;;;;;4992054;28;20038;-69
2022/06/28 02:50:15;;;;;;;3.90;2.50;;;19.60;79.50;;;;;;4991998;28;20049;-69
2022/06/28 02:52:41;;;;;;;4.53;2.85;;;19.60;79.70;;;;;;4993797;28;20406;-69
2022/06/28 02:55:07;;;;;;;3.65;1.98;;;19.50;80.00;;;;;;4990967;28;20080;-69
2022/06/28 02:57:34;;;;;;;5.00;2.38;;;19.50;80.10;;;;;;4989889;28;20038;-69
2022/06/28 03:00:01;;;;;;;3.95;2.38;;;19.50;80.50;;;;;;4988771;28;20033;-68
2022/06/28 03:02:27;;;;;;;4.35;2.50;;;19.50;80.50;;;;;;4994130;28;20646;-68
2022/06/28 03:04:52;;;;;;;6.72;2.70;;;19.50;80.50;;;;;;4993266;28;20065;-68
2022/06/28 03:07:18;;;;;;;3.47;2.50;;;19.50;80.50;;;;;;4991209;28;20139;-69
2022/06/28 03:09:44;;;;;;;3.55;2.45;;;19.50;80.40;;;;;;4992251;28;20128;-68
2022/06/28 03:12:09;;;;;;;5.05;2.33;;;19.50;80.60;;;;;;4991495;28;20038;-69
2022/06/28 03:14:35;;;;;;;7.43;2.40;;;19.50;80.70;;;;;;4991816;28;22128;-68
2022/06/28 03:17:01;;;;;;;4.25;2.28;;;19.50;80.70;;;;;;4988751;28;20034;-68
2022/06/28 03:19:26;;;;;;;3.95;2.25;;;19.50;80.80;;;;;;4992727;28;20023;-69
2022/06/28 03:21:52;;;;;;;3.53;2.83;;;19.50;80.80;;;;;;4994121;28;20523;-69
2022/06/28 03:24:18;;;;;;;4.57;2.50;;;19.50;80.70;;;;;;4990415;28;20089;-68
2022/06/28 03:26:43;;;;;;;4.75;2.47;;;19.50;80.80;;;;;;4991609;28;20107;-69
2022/06/28 03:29:09;;;;;;;7.05;2.78;;;19.50;80.80;;;;;;4991434;28;20034;-68
2022/06/28 03:31:35;;;;;;;6.05;2.50;;;19.50;81.00;;;;;;4993031;28;20085;-69
2022/06/28 03:34:01;;;;;;;4.53;2.20;;;19.60;81.00;;;;;;4991883;28;20045;-69
2022/06/28 03:36:27;;;;;;;6.30;2.22;;;19.60;81.00;;;;;;4995132;28;20807;-69
2022/06/28 03:38:54;;;;;;;4.63;2.20;;;19.60;81.00;;;;;;4992234;28;20045;-68
2022/06/28 03:41:22;;;;;;;8.80;2.30;;;19.60;81.00;;;;;;4989347;28;20030;-69
2022/06/28 03:43:49;;;;;;;4.75;2.28;;;19.70;81.10;;;;;;4993439;28;20034;-69
2022/06/28 03:46:14;;;;;;;3.55;2.20;;;19.70;81.10;;;;;;4988833;28;20132;-68
2022/06/28 03:48:40;;;;;;;5.38;2.40;;;19.70;81.00;;;;;;4993783;28;20711;-69
2022/06/28 03:51:06;;;;;;;8.98;2.67;;;19.70;80.80;;;;;;4988365;28;20030;-69
2022/06/28 03:53:31;;;;;;;4.07;2.55;;;19.70;80.80;;;;;;4994057;28;20091;-69
2022/06/28 03:55:57;;;;;;;3.05;2.55;;;19.70;80.70;;;;;;4990416;28;20065;-68
2022/06/28 03:58:22;;;;;;;5.40;2.50;;;19.70;80.80;;;;;;4989581;28;20041;-68
2022/06/28 04:00:48;;;;;;;6.38;2.55;;;19.70;80.90;;;;;;4990870;28;20477;-69
2022/06/28 04:03:14;;;;;;;9.13;2.60;;;19.70;81.20;;;;;;4992210;28;20038;-68
2022/06/28 04:05:39;;;;;;;3.20;2.70;;;19.60;81.30;;;;;;4991497;28;20034;-69
2022/06/28 04:08:05;;;;;;;3.35;2.53;;;19.70;81.30;;;;;;4990535;28;20041;-69
2022/06/28 04:10:31;;;;;;;4.97;2.92;;;19.70;81.20;;;;;;4988853;28;20084;-69
2022/06/28 04:12:56;;;;;;;3.88;2.70;;;19.70;81.10;;;;;;4990758;28;20069;-69
2022/06/28 04:15:22;;;;;;;5.53;2.67;;;19.70;81.10;;;;;;4988532;28;20035;-69
2022/06/28 04:17:48;;;;;;;5.10;2.63;;;19.80;81.30;;;;;;4991372;28;20483;-69
2022/06/28 04:20:13;;;;;;;7.35;3.13;;;19.80;81.20;;;;;;4989102;28;20081;-68
2022/06/28 04:22:39;;;;;;;11.45;2.70;;;19.80;81.00;;;;;;4993528;28;20050;-68
2022/06/28 04:25:05;;;;;;;8.40;2.65;;;19.80;81.00;;;;;;4989546;28;20646;-67
2022/06/28 04:27:30;;;;;;;6.22;2.42;;;19.80;80.90;;;;;;4991312;28;20521;-69
2022/06/28 04:29:56;;;;;;;3.75;2.70;;;19.80;80.60;;;;;;4987926;28;20521;-69
2022/06/28 04:32:21;;;;;;;5.53;2.33;;;19.90;80.70;;;;;;4980042;28;20140;-68
2022/06/28 04:34:47;;;;;;;5.85;2.45;;;19.90;80.80;;;;;;4988010;28;20536;-69
2022/06/28 04:37:13;;;;;;;4.00;2.60;;;19.90;80.80;;;;;;4988139;28;20041;-68
2022/06/28 04:39:38;;;;;;;4.90;2.80;;;19.90;80.80;;;;;;4988660;28;20501;-68
2022/06/28 04:42:05;;;;;;;4.45;2.45;;;19.90;80.70;;;;;;4993282;28;20704;-69
2022/06/28 04:44:31;;;;;;;5.20;2.55;;;20.00;80.80;;;;;;4989262;28;20049;-68
2022/06/28 04:46:57;;;;;;;2.88;2.55;;;20.00;80.60;;;;;;4994322;28;20042;-68
2022/06/28 04:49:23;;;;;;;6.63;2.80;;;20.10;81.40;;;;;;4995515;28;20091;-69
2022/06/28 04:51:48;;;;;;;5.80;3.15;;;20.00;80.50;;;;;;4993817;28;20314;-68
2022/06/28 04:54:14;;;;;;;3.53;2.85;;;20.00;80.50;;;;;;4993077;28;20041;-69
2022/06/28 04:56:39;;;;;;;3.35;2.90;;;20.00;80.70;;;;;;4994635;28;20405;-69
2022/06/28 04:59:05;;;;;;;2.42;2.22;;;20.00;80.60;;;;;;4995071;28;20617;-68
2022/06/28 05:01:30;;;;;;;6.25;3.30;;;20.00;80.70;;;;;;4996902;28;20592;-68
2022/06/28 05:03:56;;;;;;;4.38;3.00;;;20.00;80.80;;;;;;4998978;28;20043;-69
2022/06/28 05:06:22;;;;;;;3.25;2.83;;;20.10;81.00;;;;;;4998000;28;20498;-68
2022/06/28 05:08:47;;;;;;;2.80;2.58;;;20.10;80.80;;;;;;4998225;28;20117;-68
2022/06/28 05:11:13;;;;;;;3.80;3.00;;;20.10;80.80;;;;;;4996531;28;20034;-69
2022/06/28 05:13:39;;;;;;;4.68;3.05;;;20.10;80.80;;;;;;4995417;28;20418;-68
2022/06/28 05:16:04;;;;;;;4.22;3.33;;;20.10;80.60;;;;;;4998937;28;20030;-68
2022/06/28 05:18:30;;;;;;;3.42;2.95;;;20.20;80.50;;;;;;4996763;28;20041;-68
2022/06/28 05:20:55;;;;;;;4.47;3.33;;;20.20;80.40;;;;;;4998084;28;20046;-69
2022/06/28 05:23:21;;;;;;;4.00;3.00;;;20.20;80.30;;;;;;4996925;28;20044;-66
2022/06/28 05:25:47;;;;;;;3.47;3.17;;;20.20;80.10;;;;;;4991847;28;20048;-69
2022/06/28 05:28:12;;;;;;;3.95;2.83;;;20.20;80.00;;;;;;4996286;28;20394;-68
2022/06/28 05:30:38;;;;;;;3.25;2.90;;;20.30;80.30;;;;;;4994949;28;20050;-67
2022/06/28 05:33:04;;;;;;;5.75;3.08;;;20.20;80.50;;;;;;4996042;28;20054;-67
2022/06/28 05:35:30;;;;;;;5.18;2.80;;;20.20;80.20;;;;;;4995221;28;20871;-69
2022/06/28 05:37:56;;;;;;;5.20;2.25;;;20.30;80.10;;;;;;4994514;28;20049;-69
2022/06/28 05:40:21;;;;;;;3.28;2.33;;;20.30;79.90;;;;;;4994302;28;20117;-68
2022/06/28 05:42:47;;;;;;;2.22;2.10;;;20.30;79.50;;;;;;4994700;28;20034;-67
2022/06/28 05:45:12;;;;;;;3.90;2.45;;;20.30;79.40;;;;;;4994527;28;20402;-66
2022/06/28 05:47:38;;;;;;;2.65;2.47;;;20.30;79.50;;;;;;4996245;28;20497;-66
2022/06/28 05:50:04;;;;;;;4.65;2.70;;;20.30;79.40;;;;;;4993964;28;20037;-67
2022/06/28 05:52:30;;;;;;;3.55;3.25;;;20.30;79.80;;;;;;4994867;28;20037;-65
2022/06/28 05:54:55;;;;;;;3.78;2.83;;;20.30;79.50;;;;;;4994939;28;20042;-67
2022/06/28 05:57:21;;;;;;;2.97;2.42;;;20.30;79.10;;;;;;4994279;28;20489;-66
2022/06/28 05:59:46;;;;;;;5.03;2.90;;;20.20;79.30;;;;;;4996422;28;20034;-67
2022/06/28 06:02:12;;;;;;;4.93;2.72;;;20.20;79.50;;;;;;4994379;28;20096;-66
2022/06/28 06:04:38;;;;;;;4.22;2.75;;;20.20;80.00;;;;;;4991959;28;20050;-66
2022/06/28 06:07:04;;;;;;;3.15;2.53;;;20.20;80.00;;;;;;4995082;28;20046;-67
2022/06/28 06:09:30;;;;;;;2.40;2.20;;;20.20;80.00;;;;;;4995909;28;20034;-67
2022/06/28 06:11:56;;;;;;;2.55;2.13;;;20.10;79.50;;;;;;4993089;28;20069;-67
2022/06/28 06:14:22;;;;;;;2.63;2.20;;;20.10;79.80;;;;;;4981379;28;20038;-67
2022/06/28 06:16:50;;;;;;;5.40;2.33;;;20.10;79.90;;;;;;4992932;28;20494;-67
2022/06/28 06:19:16;;;;;;;3.08;2.42;;;20.00;79.90;;;;;;4992945;28;20095;-67
2022/06/28 06:21:42;;;;;;;2.50;2.30;;;20.00;79.80;;;;;;4990474;28;20117;-67
2022/06/28 06:24:08;;;;;;;2.83;2.30;;;20.00;80.00;;;;;;4993387;28;20064;-65
2022/06/28 06:26:34;;;;;;;2.42;2.17;;;20.00;80.30;;;;;;4991866;28;20037;-66
2022/06/28 06:29:00;;;;;;;2.65;2.45;;;20.00;80.70;;;;;;4993613;28;20042;-66
2022/06/28 06:31:26;;;;;;;2.70;2.50;;;20.00;80.60;;;;;;4993040;28;20039;-66
2022/06/28 06:33:52;;;;;;;2.80;2.60;;;20.00;80.00;;;;;;4997754;28;20038;-66
2022/06/28 06:36:18;;;;;;;4.07;2.40;;;20.00;80.00;;;;;;4993849;28;20092;-67
2022/06/28 06:38:43;;;;;;;3.50;2.67;;;20.00;80.00;;;;;;4992528;28;20076;-66
2022/06/28 06:41:09;;;;;;;3.22;2.78;;;19.90;80.50;;;;;;4993216;28;20656;-66
2022/06/28 06:43:34;;;;;;;3.08;2.70;;;19.90;80.70;;;;;;4995210;28;20064;-66
2022/06/28 06:46:00;;;;;;;3.28;2.78;;;19.90;80.70;;;;;;4997997;28;20529;-66
2022/06/28 06:48:26;;;;;;;4.68;2.95;;;20.00;80.80;;;;;;4993292;28;20042;-64
2022/06/28 06:50:52;;;;;;;4.97;3.00;;;19.90;80.80;;;;;;4994189;28;20061;-65
2022/06/28 06:53:20;;;;;;;4.47;3.08;;;20.00;80.60;;;;;;4995902;28;20540;-65
2022/06/28 06:55:47;;;;;;;4.53;3.20;;;19.90;80.50;;;;;;4993668;28;20092;-65
2022/06/28 06:58:13;;;;;;;4.45;3.85;;;19.90;81.60;;;;;;4991705;28;20403;-66
2022/06/28 07:41:04;;;;;;;4.07;3.42;;;19.80;84.30;;;;;;4991862;28;20057;-67
2022/06/28 07:43:29;;;;;;;3.00;2.80;;;19.90;83.40;;;;;;4979226;28;20041;-67
2022/06/28 07:45:55;;;;;;;3.88;3.30;;;19.90;83.50;;;;;;4993702;28;20405;-67
2022/06/28 07:48:20;;;;;;;3.33;2.85;;;20.00;83.80;;;;;;4991429;28;20519;-67
2022/06/28 07:53:32;;;;;;;3.35;3.03;;;20.20;84.40;;;;;;4994066;28;20068;-68
2022/06/28 07:55:58;;;;;;;3.13;2.83;;;20.30;84.30;;;;;;4973721;28;20516;-67
2022/06/28 07:58:24;;;;;;;3.30;3.00;;;20.40;83.80;;;;;;4991788;28;20037;-68
2022/06/28 08:00:50;;;;;;;3.50;3.20;;;20.50;83.40;;;;;;4991645;28;20655;-67
2022/06/28 08:03:16;;;;;;;3.67;3.15;;;20.60;83.20;;;;;;4986400;28;20053;-68
2022/06/28 08:05:41;;;;;;;3.10;2.85;;;20.70;82.90;;;;;;4994210;28;20060;-68
2022/06/28 08:08:07;;;;;;;3.40;3.10;;;20.80;83.60;;;;;;4991937;28;20040;-67
2022/06/28 08:10:33;;;;;;;3.88;2.90;;;20.90;82.20;;;;;;4988049;28;20038;-67
2022/06/28 08:12:59;;;;;;;3.00;2.70;;;20.90;82.20;;;;;;4988929;28;20104;-68
2022/06/28 08:15:24;;;;;;;3.40;3.10;;;21.00;82.10;;;;;;4991851;28;20054;-68
2022/06/28 08:17:50;;;;;;;3.40;2.97;;;21.10;81.60;;;;;;4993788;28;20034;-68
2022/06/28 08:20:16;;;;;;;2.95;2.75;;;21.20;81.50;;;;;;4992226;28;20041;-67
2022/06/28 08:22:41;;;;;;;3.28;2.97;;;21.20;80.90;;;;;;4992047;28;20037;-68
2022/06/28 08:25:08;;;;;;;3.88;2.92;;;21.30;80.60;;;;;;4991830;28;20042;-67
2022/06/28 08:27:33;;;;;;;3.20;3.00;;;21.40;80.30;;;;;;4994783;28;20038;-68
2022/06/28 08:29:59;;;;;;;3.30;2.88;;;21.40;79.30;;;;;;4992334;28;20046;-67
2022/06/28 08:32:25;;;;;;;2.78;2.50;;;21.50;79.10;;;;;;4991562;28;20042;-68
2022/06/28 08:34:51;;;;;;;2.70;2.60;;;21.50;78.60;;;;;;4992878;28;20090;-67
2022/06/28 08:37:17;;;;;;;2.95;2.70;;;21.50;78.50;;;;;;4993721;28;20069;-68
2022/06/28 08:39:43;;;;;;;2.58;2.35;;;21.50;78.20;;;;;;4993378;28;20038;-69
2022/06/28 08:42:11;;;;;;;3.20;2.90;;;21.60;78.40;;;;;;4982171;28;20414;-68
2022/06/28 08:44:37;;;;;;;4.10;3.00;;;21.50;78.10;;;;;;4994035;28;20042;-68
2022/06/28 08:47:04;;;;;;;2.85;2.65;;;21.60;78.00;;;;;;4993456;28;20490;-67
2022/06/28 08:50:18;;;;;;;2.80;2.60;;;21.60;77.30;;;;;;4992118;28;20038;-67
2022/06/28 08:52:45;;;;;;;2.80;2.60;;;21.60;77.10;;;;;;4983819;28;20549;-68
2022/06/28 08:55:11;;;;;;;2.65;2.45;;;21.60;77.30;;;;;;4991747;28;20044;-68
2022/06/28 08:57:38;;;;;;;2.95;2.75;;;21.60;76.70;;;;;;4992943;28;20042;-68
2022/06/28 09:00:05;;;;;;;3.38;3.17;;;21.70;76.80;;;;;;4992633;28;20124;-67
2022/06/28 09:02:31;;;;;;;3.88;3.00;;;21.70;76.80;;;;;;4993107;28;20049;-67
2022/06/28 09:05:00;;;;;;;5.95;3.50;;;21.70;77.20;;;;;;4991783;28;20066;-67
2022/06/28 09:07:26;;;;;;;3.25;3.05;;;21.70;76.30;;;;;;4993152;28;20030;-68
2022/06/28 09:09:52;;;;;;;3.17;2.97;;;21.70;75.90;;;;;;4991561;28;20550;-68
2022/06/28 09:12:19;;;;;;;4.72;2.58;;;21.70;76.00;;;;;;4990069;28;20038;-68
2022/06/28 09:14:45;;;;;;;3.28;3.08;;;21.70;76.50;;;;;;4992874;28;20034;-68
2022/06/28 09:17:25;;;;;;;3.20;2.90;;;21.70;76.40;;;;;;4994056;28;20069;-68
2022/06/28 09:20:08;;;;;;;2.97;2.78;;;21.70;76.30;;;;;;4993209;28;20045;-68
2022/06/28 09:22:39;;;;;;;3.20;2.90;;;21.70;76.20;;;;;;4990366;28;20042;-68
2022/06/28 09:25:25;;;;;;;3.65;3.35;;;21.70;76.10;;;;;;4993171;28;20038;-68
2022/06/28 09:27:55;;;;;;;3.25;3.00;;;21.70;75.30;;;;;;4995588;28;20038;-69
2022/06/28 09:30:21;;;;;;;3.25;2.97;;;21.70;75.60;;;;;;4996618;28;20042;-69
2022/06/28 09:32:46;;;;;;;3.50;3.22;;;21.70;76.00;;;;;;4979876;28;20126;-68
2022/06/28 09:35:12;;;;;;;3.53;3.20;;;21.70;75.40;;;;;;4996437;28;20554;-68
2022/06/28 09:37:52;;;;;;;3.58;3.20;;;21.70;74.90;;;;;;4996496;28;20588;-68
2022/06/28 09:40:23;;;;;;;3.17;2.78;;;21.70;75.10;;;;;;4997807;28;20030;-69
2022/06/28 09:43:14;;;;;;;3.42;3.13;;;21.70;75.00;;;;;;4994379;28;20125;-69
2022/06/28 09:45:46;;;;;;;2.60;2.40;;;21.70;74.20;;;;;;4996870;28;20505;-69
2022/06/28 09:48:19;;;;;;;3.13;2.83;;;21.70;75.30;;;;;;4994291;28;20041;-68
2022/06/28 09:50:46;;;;;;;2.75;2.55;;;21.60;74.50;;;;;;4996194;28;20037;-69
2022/06/28 09:53:16;;;;;;;3.50;3.00;;;21.60;74.90;;;;;;4994032;28;20042;-68
2022/06/28 09:55:42;;;;;;;2.72;2.63;;;21.70;74.80;;;;;;4995160;28;20039;-68
2022/06/28 09:58:09;;;;;;;2.75;2.55;;;21.70;74.50;;;;;;4993098;28;20037;-67
2022/06/28 10:00:39;;;;;;;2.45;2.35;;;21.70;74.50;;;;;;4996808;28;20508;-68
2022/06/28 10:03:05;;;;;;;2.65;2.55;;;21.70;74.50;;;;;;4994414;28;20042;-68
2022/06/28 10:05:32;;;;;;;3.08;2.78;;;21.80;74.60;;;;;;4996534;28;20518;-68
2022/06/28 10:07:58;;;;;;;3.58;2.65;;;21.80;74.40;;;;;;4995606;28;20041;-68
2022/06/28 10:10:24;;;;;;;2.65;2.47;;;21.80;74.40;;;;;;4997360;28;20436;-68
2022/06/28 10:15:37;;;;;;;3.50;2.53;;;21.80;73.70;;;;;;4996337;28;20052;-68
2022/06/28 10:18:32;;;;;;;2.90;2.70;;;21.90;73.90;;;;;;4996933;28;20057;-68
2022/06/28 10:20:57;;;;;;;2.65;2.45;;;21.90;73.50;;;;;;4982333;28;20034;-68
2022/06/28 10:23:23;;;;;;;3.15;2.35;;;21.90;73.60;;;;;;4994696;28;20039;-68
2022/06/28 10:26:03;;;;;;;2.90;2.45;;;21.90;73.70;;;;;;4997404;28;20026;-69
2022/06/28 10:28:35;;;;;;;2.10;2.00;;;21.90;73.70;;;;;;4995548;28;20034;-68
2022/06/28 10:31:23;;;;;;;2.25;2.05;;;22.00;73.70;;;;;;4996634;28;20505;-69
2022/06/28 10:33:50;;;;;;;2.17;2.00;;;22.10;73.80;;;;;;4994800;28;20099;-69
2022/06/28 10:36:18;;;;;;;2.85;2.08;;;22.10;73.60;;;;;;4995912;28;20041;-68
2022/06/28 10:39:08;;;;;;;2.47;2.28;;;22.10;73.70;;;;;;4994982;28;21871;-69
2022/06/28 10:41:44;;;;;;;2.00;1.90;;;22.20;73.70;;;;;;4995203;28;20029;-68
2022/06/28 10:44:16;;;;;;;1.90;1.80;;;22.30;73.40;;;;;;4993987;28;20044;-68
2022/06/28 10:47:10;;;;;;;2.10;1.80;;;22.40;73.40;;;;;;4994530;28;20037;-69
2022/06/28 10:49:51;;;;;;;2.00;1.90;;;22.50;72.60;;;;;;4992216;28;20283;-69
2022/06/28 10:52:32;;;;;;;2.00;1.90;;;22.50;72.30;;;;;;4995423;28;20513;-68
2022/06/28 10:54:58;;;;;;;2.17;1.98;;;22.60;72.40;;;;;;4996616;28;20089;-69
2022/06/28 10:57:33;;;;;;;1.85;1.75;;;22.60;72.00;;;;;;4993492;28;20339;-68
2022/06/28 11:00:03;;;;;;;1.60;1.50;;;22.70;71.10;;;;;;4994621;28;20038;-68
2022/06/28 11:02:46;;;;;;;1.88;1.77;;;22.70;71.60;;;;;;4994848;28;20121;-69
2022/06/28 11:05:11;;;;;;;2.55;1.90;;;22.70;70.40;;;;;;4994238;28;20212;-69
2022/06/28 11:07:39;;;;;;;3.53;1.70;;;22.70;71.40;;;;;;4994016;28;20387;-68
2022/06/28 11:10:15;;;;;;;2.70;1.52;;;22.80;71.30;;;;;;4994665;28;20412;-68
2022/06/28 11:12:42;;;;;;;1.77;1.52;;;22.90;70.70;;;;;;4971058;28;20345;-68
2022/06/28 11:15:12;;;;;;;1.67;1.58;;;22.90;70.80;;;;;;4981361;28;20116;-68
2022/06/28 11:17:40;;;;;;;2.42;1.50;;;22.90;70.60;;;;;;4994258;28;20077;-67
2022/06/28 11:20:07;;;;;;;1.52;1.42;;;23.00;70.20;;;;;;4994794;28;20520;-69
2022/06/28 11:22:34;;;;;;;1.42;1.30;;;23.10;70.50;;;;;;4992779;28;20148;-69
2022/06/28 11:25:03;;;;;;;1.95;1.25;;;23.10;70.10;;;;;;4994927;28;20101;-68
2022/06/28 11:27:29;;;;;;;2.85;1.45;;;23.20;69.80;;;;;;4994850;28;20076;-68
2022/06/28 11:30:00;;;;;;;1.88;1.30;;;23.30;69.60;;;;;;4993582;28;20160;-68
2022/06/28 11:32:37;;;;;;;1.50;1.40;;;23.40;68.30;;;;;;4992100;28;20030;-70
2022/06/28 11:35:03;;;;;;;1.45;1.35;;;23.40;68.70;;;;;;4995285;28;20484;-68
2022/06/28 11:37:31;;;;;;;2.25;1.30;;;23.50;68.70;;;;;;4996901;28;20030;-68
2022/06/28 11:40:00;;;;;;;1.45;1.20;;;23.60;68.60;;;;;;4996608;28;20068;-69
2022/06/28 11:42:26;;;;;;;1.40;1.30;;;23.60;68.00;;;;;;4994155;28;20040;-70
2022/06/28 11:44:52;;;;;;;1.77;1.20;;;23.70;68.00;;;;;;4991990;28;20092;-68
2022/06/28 11:47:19;;;;;;;2.30;1.38;;;23.80;67.80;;;;;;4993383;28;20038;-69
2022/06/28 11:49:51;;;;;;;2.92;1.40;;;23.80;67.10;;;;;;4991001;28;20034;-69
2022/06/28 11:52:17;;;;;;;1.58;1.30;;;23.90;66.40;;;;;;4993826;28;20942;-68
2022/06/28 11:54:45;;;;;;;2.22;1.10;;;23.90;66.50;;;;;;4992678;28;20034;-68
2022/06/28 11:57:17;;;;;;;2.22;1.20;;;24.00;66.30;;;;;;4994871;28;20528;-69
2022/06/28 11:59:56;;;;;;;1.67;1.40;;;24.00;65.60;;;;;;4977411;28;20041;-69
2022/06/28 12:02:43;;;;;;;1.52;1.25;;;24.10;65.00;;;;;;4992887;28;20029;-69
2022/06/28 12:05:10;;;;;;;1.25;1.15;;;24.10;63.60;;;;;;4993925;28;20563;-68
2022/06/28 12:07:38;;;;;;;1.17;1.08;;;24.10;64.80;;;;;;4994780;28;20089;-69
2022/06/28 12:10:09;;;;;;;1.27;1.10;;;24.10;64.80;;;;;;4993727;28;20568;-69
2022/06/28 12:12:41;;;;;;;1.58;1.30;;;24.20;64.70;;;;;;4992871;28;20042;-69
2022/06/28 12:15:07;;;;;;;1.02;1.02;;;24.10;63.30;;;;;;4992145;28;20050;-69
2022/06/28 12:17:47;;;;;;;1.08;0.98;;;24.20;63.70;;;;;;4991094;28;20044;-68
2022/06/28 12:20:14;;;;;;;1.65;1.10;;;24.20;62.30;;;;;;4993814;28;20589;-68
2022/06/28 12:22:40;;;;;;;1.58;1.27;;;24.20;63.70;;;;;;4992838;28;20041;-69
2022/06/28 12:25:10;;;;;;;3.03;1.38;;;24.20;64.20;;;;;;4993319;28;20295;-67
2022/06/28 12:27:36;;;;;;;1.25;1.00;;;24.20;63.70;;;;;;4975890;28;20143;-69
2022/06/28 12:30:04;;;;;;;1.40;1.30;;;24.30;63.90;;;;;;4992954;28;20705;-68
2022/06/28 12:32:30;;;;;;;1.42;1.33;;;24.30;64.00;;;;;;4994365;28;20040;-68
2022/06/28 12:35:01;;;;;;;1.42;1.33;;;24.40;63.40;;;;;;4995742;28;20038;-69
2022/06/28 12:37:27;;;;;;;2.67;1.40;;;24.40;62.90;;;;;;4992708;28;20128;-69
2022/06/28 12:39:53;;;;;;;1.25;1.02;;;24.30;62.80;;;;;;4995624;28;20510;-69
2022/06/28 12:42:19;;;;;;;1.58;1.27;;;24.40;63.30;;;;;;4992269;28;20035;-69
2022/06/28 12:44:44;;;;;;;1.40;1.10;;;24.40;62.70;;;;;;4993935;28;20048;-69
2022/06/28 12:47:10;;;;;;;1.10;1.00;;;24.30;62.70;;;;;;4994143;28;20061;-68
2022/06/28 12:49:36;;;;;;;3.00;1.02;;;24.30;62.90;;;;;;4980466;28;20042;-69
2022/06/28 12:52:03;;;;;;;1.20;1.20;;;24.30;63.10;;;;;;4994364;28;20513;-69
2022/06/28 12:54:29;;;;;;;1.30;1.20;;;24.30;63.00;;;;;;4991290;28;20545;-69
2022/06/28 12:56:55;;;;;;;1.50;1.30;;;24.20;62.50;;;;;;4992604;28;20041;-69
2022/06/28 12:59:20;;;;;;;1.40;1.25;;;24.20;62.50;;;;;;4993262;28;20121;-68
2022/06/28 13:01:46;;;;;;;2.60;1.25;;;24.20;62.40;;;;;;4980889;28;20100;-69
2022/06/28 13:04:13;;;;;;;2.45;1.30;;;24.10;62.60;;;;;;4997476;28;20363;-68
2022/06/28 13:06:42;;;;;;;2.78;1.20;;;24.10;62.70;;;;;;4996715;28;20382;-69
2022/06/28 13:09:08;;;;;;;1.98;1.20;;;24.10;63.10;;;;;;4997885;28;20070;-69
2022/06/28 13:11:34;;;;;;;2.58;1.20;;;24.10;63.10;;;;;;4994168;28;20030;-69
2022/06/28 13:14:00;;;;;;;1.25;1.15;;;24.10;64.00;;;;;;4998218;28;20034;-69
2022/06/28 13:16:26;;;;;;;1.30;1.20;;;24.10;63.20;;;;;;4997516;28;20501;-69
2022/06/28 13:18:52;;;;;;;2.17;1.30;;;24.00;63.10;;;;;;4996205;28;20125;-69
2022/06/28 13:21:17;;;;;;;1.50;1.40;;;24.00;63.60;;;;;;4997856;28;20125;-68
2022/06/28 13:23:43;;;;;;;1.10;1.00;;;24.00;63.70;;;;;;4997469;28;20493;-69
2022/06/28 13:26:09;;;;;;;1.05;1.00;;;24.00;63.50;;;;;;4994583;28;20158;-69
2022/06/28 13:28:34;;;;;;;1.30;1.20;;;24.00;63.40;;;;;;4994142;28;20031;-69
2022/06/28 13:31:01;;;;;;;2.00;1.10;;;24.00;63.40;;;;;;4995729;28;20042;-69
2022/06/28 13:33:26;;;;;;;1.10;1.10;;;24.00;63.40;;;;;;4997499;28;20026;-69
2022/06/28 13:35:52;;;;;;;1.40;1.30;;;24.00;63.30;;;;;;4997752;28;20037;-69
2022/06/28 13:38:18;;;;;;;2.55;1.40;;;24.00;63.40;;;;;;4997308;28;20092;-69
2022/06/28 13:40:47;;;;;;;1.05;1.05;;;24.00;63.30;;;;;;4995170;28;21005;-68
2022/06/28 13:45:57;;;;;;;1.48;1.38;;;23.90;63.30;;;;;;4998036;28;20089;-69